Time;durP1;ratioP1;P1;durP2;ratioP2;P2;SDS_P1;SDS_P2;PMS_P1;PMS_P2;Temp;Humidity;BMP_temperature;BMP_pressure;BME280_temperature;BME280_humidity;BME280_pressure;Samples;Min_cycle;Max_cycle;Signal;HPM_P1;HPM_P2
2022/08/27 00:02:13;;;;;;;4.50;2.17;;;16.10;99.90;;;;;;5072842;28;20101;-55
2022/08/27 00:04:40;;;;;;;4.60;2.35;;;16.00;99.90;;;;;;5067850;28;20013;-43
2022/08/27 00:07:07;;;;;;;4.80;2.35;;;15.90;99.90;;;;;;5072511;28;20111;-54
2022/08/27 00:09:33;;;;;;;8.45;3.50;;;15.90;99.90;;;;;;5068774;28;20044;-47
2022/08/27 00:11:59;;;;;;;8.55;3.15;;;15.80;99.90;;;;;;5072796;28;20024;-55
2022/08/27 00:14:27;;;;;;;5.80;2.85;;;15.80;99.90;;;;;;5072593;28;20042;-44
2022/08/27 00:16:53;;;;;;;6.72;3.20;;;15.80;99.90;;;;;;5072588;28;20021;-50
2022/08/27 00:19:20;;;;;;;7.10;2.95;;;15.70;99.90;;;;;;5072222;28;20025;-50
2022/08/27 00:21:46;;;;;;;7.78;2.72;;;15.70;99.90;;;;;;5072107;28;20502;-51
2022/08/27 00:24:11;;;;;;;8.45;2.75;;;15.70;99.90;;;;;;5072370;28;20028;-50
2022/08/27 00:26:37;;;;;;;6.95;2.80;;;15.60;99.90;;;;;;5071281;28;20017;-50
2022/08/27 00:29:03;;;;;;;7.78;2.70;;;15.70;99.90;;;;;;5054967;28;20029;-52
2022/08/27 00:31:29;;;;;;;7.88;3.10;;;15.70;99.90;;;;;;5065444;28;20051;-46
2022/08/27 00:33:56;;;;;;;7.25;3.53;;;15.70;99.90;;;;;;5071971;28;20032;-47
2022/08/27 00:36:22;;;;;;;8.35;3.03;;;15.70;99.90;;;;;;5072209;28;20082;-48
2022/08/27 00:38:48;;;;;;;8.15;2.58;;;15.60;99.90;;;;;;5071117;28;20021;-52
2022/08/27 00:41:14;;;;;;;3.13;1.85;;;15.60;99.90;;;;;;5071625;28;20032;-50
2022/08/27 00:43:49;;;;;;;5.80;2.20;;;15.60;99.90;;;;;;5071651;28;20107;-46
2022/08/27 00:46:56;;;;;;;6.53;2.40;;;15.60;99.90;;;;;;5071743;28;20032;-47
2022/08/27 00:49:46;;;;;;;5.85;2.38;;;15.50;99.90;;;;;;5026612;28;20174;-49
2022/08/27 00:52:47;;;;;;;11.13;2.60;;;15.40;99.90;;;;;;5070603;28;20029;-54
2022/08/27 00:55:19;;;;;;;6.82;2.85;;;15.40;99.90;;;;;;5067647;28;20036;-53
2022/08/27 00:57:54;;;;;;;9.40;2.67;;;15.40;99.90;;;;;;5071850;28;20024;-50
2022/08/27 01:00:21;;;;;;;8.73;3.30;;;15.40;99.90;;;;;;5071373;28;20049;-49
2022/08/27 01:02:47;;;;;;;6.63;2.80;;;15.40;99.90;;;;;;5071820;28;20036;-47
2022/08/27 01:05:19;;;;;;;6.38;3.20;;;15.30;99.90;;;;;;5071687;28;20061;-49
2022/08/27 01:07:49;;;;;;;5.35;2.95;;;15.30;99.90;;;;;;5071608;28;20059;-50
2022/08/27 01:10:18;;;;;;;4.60;2.50;;;15.20;99.90;;;;;;5071402;28;20032;-47
2022/08/27 01:12:44;;;;;;;6.50;2.78;;;15.20;99.90;;;;;;5071053;28;20480;-47
2022/08/27 01:15:13;;;;;;;7.18;2.90;;;15.20;99.90;;;;;;5071319;28;20035;-50
2022/08/27 01:17:40;;;;;;;6.43;2.67;;;15.10;99.90;;;;;;5070888;28;20033;-45
2022/08/27 01:20:12;;;;;;;8.87;2.77;;;15.10;99.90;;;;;;5060332;28;20032;-51
2022/08/27 01:22:56;;;;;;;8.10;2.95;;;15.00;99.90;;;;;;5071233;28;20714;-53
2022/08/27 01:25:23;;;;;;;7.30;3.38;;;15.00;99.90;;;;;;5071264;28;20082;-50
2022/08/27 01:27:51;;;;;;;8.80;3.17;;;14.90;99.90;;;;;;5071230;28;20395;-45
2022/08/27 01:30:19;;;;;;;7.00;3.20;;;14.90;99.90;;;;;;5071345;28;20028;-49
2022/08/27 01:32:45;;;;;;;13.07;3.45;;;14.90;99.90;;;;;;5071162;28;20082;-52
2022/08/27 01:35:14;;;;;;;7.35;2.47;;;14.90;99.90;;;;;;5071410;28;20032;-51
2022/08/27 01:37:42;;;;;;;6.82;2.70;;;14.90;99.90;;;;;;5071157;28;20090;-49
2022/08/27 01:40:09;;;;;;;6.43;2.90;;;14.90;99.90;;;;;;5069865;28;20509;-50
2022/08/27 01:42:38;;;;;;;5.20;2.50;;;14.90;99.90;;;;;;5071177;28;20035;-47
2022/08/27 01:45:38;;;;;;;6.22;2.40;;;14.80;99.90;;;;;;5071110;28;20089;-52
2022/08/27 01:48:04;;;;;;;;;;;14.80;99.90;;;;;;5019576;28;20033;-48
2022/08/27 01:50:34;;;;;;;6.80;2.35;;;14.80;99.90;;;;;;5070644;28;19923;-48
2022/08/27 01:53:08;;;;;;;4.10;2.42;;;14.80;99.90;;;;;;5064589;28;20067;-46
2022/08/27 01:55:34;;;;;;;6.75;2.30;;;14.80;99.90;;;;;;5067473;28;20048;-43
2022/08/27 01:58:00;;;;;;;4.15;2.13;;;14.70;99.90;;;;;;5063653;28;20033;-44
2022/08/27 02:00:29;;;;;;;7.20;2.20;;;14.70;99.90;;;;;;5070444;28;20118;-50
2022/08/27 02:02:56;;;;;;;5.82;2.25;;;14.60;99.90;;;;;;5070878;28;20041;-45
2022/08/27 02:05:22;;;;;;;3.72;2.20;;;14.60;99.90;;;;;;5070641;28;20438;-50
2022/08/27 02:07:48;;;;;;;2.97;1.90;;;14.60;99.90;;;;;;5071111;28;20357;-50
2022/08/27 02:10:18;;;;;;;6.82;2.42;;;14.50;99.90;;;;;;5070734;28;20443;-44
2022/08/27 02:12:44;;;;;;;6.35;2.38;;;14.60;99.90;;;;;;5070662;28;20051;-44
2022/08/27 02:15:10;;;;;;;5.55;2.20;;;14.60;99.90;;;;;;5061060;28;20467;-50
2022/08/27 02:17:37;;;;;;;6.05;2.30;;;14.50;99.90;;;;;;5070794;28;20052;-46
2022/08/27 02:20:04;;;;;;;5.78;2.15;;;14.50;99.90;;;;;;5070620;28;20050;-49
2022/08/27 02:22:30;;;;;;;5.32;1.90;;;14.50;99.90;;;;;;5070223;28;20033;-48
2022/08/27 02:24:56;;;;;;;5.68;2.63;;;14.50;99.90;;;;;;5070236;28;20024;-50
2022/08/27 02:27:21;;;;;;;5.75;2.50;;;14.40;99.90;;;;;;5065133;28;20490;-51
2022/08/27 02:29:47;;;;;;;6.45;2.47;;;14.40;99.90;;;;;;5068309;28;20476;-49
2022/08/27 02:32:14;;;;;;;6.75;2.85;;;14.40;99.90;;;;;;5064842;28;20033;-47
2022/08/27 02:34:39;;;;;;;6.85;3.75;;;14.40;99.90;;;;;;5070502;28;20058;-49
2022/08/27 02:37:06;;;;;;;6.28;2.50;;;14.40;99.90;;;;;;5070099;28;20020;-47
2022/08/27 02:39:33;;;;;;;3.80;2.20;;;14.40;99.90;;;;;;5070465;28;20032;-51
2022/08/27 02:41:59;;;;;;;6.35;2.63;;;14.30;99.90;;;;;;5070443;28;20078;-49
2022/08/27 02:44:25;;;;;;;7.82;2.70;;;14.30;99.90;;;;;;5070538;28;20463;-50
2022/08/27 02:46:51;;;;;;;7.30;2.67;;;14.30;99.90;;;;;;5070236;28;20515;-46
2022/08/27 02:49:16;;;;;;;7.82;2.58;;;14.30;99.90;;;;;;5070095;28;20120;-47
2022/08/27 02:51:42;;;;;;;6.82;2.83;;;14.20;99.90;;;;;;5073464;28;20067;-47
2022/08/27 02:54:09;;;;;;;8.68;3.05;;;14.30;99.90;;;;;;5074312;28;20433;-47
2022/08/27 02:56:35;;;;;;;6.88;2.67;;;14.30;99.90;;;;;;5074130;28;20081;-48
2022/08/27 02:59:00;;;;;;;8.70;2.90;;;14.30;99.90;;;;;;5074220;28;20032;-46
2022/08/27 03:01:26;;;;;;;10.13;3.03;;;14.20;99.90;;;;;;5074159;28;20055;-44
2022/08/27 03:03:52;;;;;;;7.25;3.45;;;14.20;99.90;;;;;;5073585;28;20017;-47
2022/08/27 03:06:18;;;;;;;9.52;3.47;;;14.20;99.90;;;;;;5073805;28;20035;-46
2022/08/27 03:08:44;;;;;;;6.60;2.78;;;14.20;99.90;;;;;;5073615;28;20129;-43
2022/08/27 03:11:11;;;;;;;7.85;3.10;;;14.20;99.90;;;;;;5071958;28;20017;-44
2022/08/27 03:13:39;;;;;;;6.95;2.65;;;14.20;99.90;;;;;;5073961;28;20036;-50
2022/08/27 03:16:06;;;;;;;9.40;3.40;;;14.20;99.90;;;;;;5073930;28;20035;-45
2022/08/27 03:18:32;;;;;;;9.65;2.85;;;14.20;99.90;;;;;;5074001;28;20030;-46
2022/08/27 03:21:00;;;;;;;6.00;2.55;;;14.10;99.90;;;;;;5073354;28;20029;-53
2022/08/27 03:23:31;;;;;;;7.55;2.67;;;14.20;99.90;;;;;;5073844;28;20506;-44
2022/08/27 03:25:59;;;;;;;6.38;2.40;;;14.10;99.90;;;;;;5073420;28;20009;-45
2022/08/27 03:28:29;;;;;;;7.18;2.47;;;14.20;99.90;;;;;;5073846;28;20024;-46
2022/08/27 03:30:59;;;;;;;6.60;2.75;;;14.20;99.90;;;;;;5073858;28;20051;-44
2022/08/27 03:33:27;;;;;;;6.28;2.40;;;14.20;99.90;;;;;;5073868;28;20025;-51
2022/08/27 03:35:53;;;;;;;6.70;2.30;;;14.20;99.90;;;;;;5073488;28;20078;-50
2022/08/27 03:38:19;;;;;;;9.23;2.45;;;14.30;99.90;;;;;;5073272;28;20028;-55
2022/08/27 03:40:45;;;;;;;6.88;2.83;;;14.30;99.90;;;;;;5073161;28;20115;-45
2022/08/27 03:43:12;;;;;;;4.82;2.03;;;14.30;99.90;;;;;;5072851;28;20078;-46
2022/08/27 03:45:41;;;;;;;9.30;2.40;;;14.30;99.90;;;;;;5072973;28;20025;-46
2022/08/27 03:48:06;;;;;;;6.88;2.63;;;14.40;99.90;;;;;;5072855;28;20123;-48
2022/08/27 03:50:32;;;;;;;6.00;2.50;;;14.50;99.90;;;;;;5073073;28;20464;-52
2022/08/27 03:52:58;;;;;;;5.45;2.15;;;14.50;99.90;;;;;;5073065;28;20021;-49
2022/08/27 03:55:23;;;;;;;9.90;2.58;;;14.40;99.90;;;;;;5072928;28;20434;-50
2022/08/27 03:57:49;;;;;;;8.23;2.17;;;14.40;99.90;;;;;;5073290;28;20025;-44
2022/08/27 04:00:15;;;;;;;5.72;2.13;;;14.40;99.90;;;;;;5072831;28;20103;-51
2022/08/27 04:02:42;;;;;;;4.53;2.08;;;14.30;99.90;;;;;;5072122;28;20040;-46
2022/08/27 04:05:12;;;;;;;5.25;2.30;;;14.30;99.90;;;;;;5072910;28;20056;-50
2022/08/27 04:07:42;;;;;;;5.40;2.47;;;14.30;99.90;;;;;;5072838;28;20024;-46
2022/08/27 04:10:10;;;;;;;5.80;2.50;;;14.20;99.90;;;;;;5072862;28;20020;-51
2022/08/27 04:12:36;;;;;;;5.75;2.50;;;14.10;99.90;;;;;;5072634;28;20029;-49
2022/08/27 04:15:03;;;;;;;6.97;2.40;;;14.10;99.90;;;;;;5072276;28;21242;-48
2022/08/27 04:17:30;;;;;;;4.75;2.42;;;14.10;99.90;;;;;;5072169;28;20446;-46
2022/08/27 04:19:58;;;;;;;6.78;2.30;;;14.10;99.90;;;;;;5072136;28;20086;-44
2022/08/27 04:22:25;;;;;;;7.95;2.83;;;14.00;99.90;;;;;;5072428;28;20529;-47
2022/08/27 04:24:51;;;;;;;6.38;2.55;;;14.00;99.90;;;;;;5071381;28;20422;-48
2022/08/27 04:27:16;;;;;;;9.80;2.85;;;14.10;99.90;;;;;;5072548;28;20025;-49
2022/08/27 04:29:43;;;;;;;8.90;3.00;;;14.00;99.90;;;;;;5072500;28;20048;-54
2022/08/27 04:32:09;;;;;;;5.97;2.72;;;14.00;99.90;;;;;;5072497;28;20032;-43
2022/08/27 04:34:35;;;;;;;9.35;2.70;;;13.90;99.90;;;;;;5070661;28;20025;-46
2022/08/27 04:37:02;;;;;;;6.97;2.90;;;13.90;99.90;;;;;;5072470;28;20025;-53
2022/08/27 04:39:28;;;;;;;8.82;3.05;;;13.90;99.90;;;;;;5072168;28;20433;-52
2022/08/27 04:41:57;;;;;;;4.47;2.85;;;13.90;99.90;;;;;;5072126;28;20435;-48
2022/08/27 04:44:25;;;;;;;7.82;2.92;;;13.80;99.90;;;;;;5071923;28;20036;-50
2022/08/27 04:46:55;;;;;;;8.07;3.22;;;13.80;99.90;;;;;;5071692;28;20085;-47
2022/08/27 04:49:20;;;;;;;6.05;2.80;;;13.80;99.90;;;;;;5071505;28;20045;-45
2022/08/27 04:51:46;;;;;;;6.57;2.75;;;13.80;99.90;;;;;;5071497;28;20023;-44
2022/08/27 04:54:11;;;;;;;7.63;2.90;;;13.80;99.90;;;;;;5071982;28;20171;-49
2022/08/27 04:56:38;;;;;;;5.10;2.35;;;13.90;99.90;;;;;;5071848;28;20498;-54
2022/08/27 04:59:06;;;;;;;5.28;2.92;;;14.00;99.90;;;;;;5071895;28;20021;-43
2022/08/27 05:01:33;;;;;;;3.88;2.40;;;14.00;99.90;;;;;;5071632;28;20033;-43
2022/08/27 05:03:59;;;;;;;5.25;2.60;;;14.00;99.90;;;;;;5071711;28;20035;-46
2022/08/27 05:06:26;;;;;;;7.18;2.80;;;14.00;99.90;;;;;;5071547;28;20020;-49
2022/08/27 05:08:53;;;;;;;6.07;2.70;;;14.00;99.90;;;;;;5070518;28;20025;-45
2022/08/27 05:11:20;;;;;;;7.05;3.17;;;14.00;99.90;;;;;;5071737;28;20513;-48
2022/08/27 05:13:47;;;;;;;6.32;2.65;;;13.90;99.90;;;;;;5070497;28;20036;-50
2022/08/27 05:16:17;;;;;;;5.40;2.25;;;13.90;99.90;;;;;;5071531;28;20059;-56
2022/08/27 05:18:43;;;;;;;4.78;2.10;;;14.00;99.90;;;;;;5071700;28;20052;-50
2022/08/27 05:21:14;;;;;;;4.80;2.63;;;13.90;99.90;;;;;;5071441;28;20040;-44
2022/08/27 05:23:40;;;;;;;4.55;2.20;;;13.90;99.90;;;;;;5071501;28;20108;-46
2022/08/27 05:26:06;;;;;;;6.68;2.40;;;14.00;99.90;;;;;;5073501;28;20103;-49
2022/08/27 05:28:32;;;;;;;4.97;2.25;;;14.00;99.90;;;;;;5085195;28;20027;-47
2022/08/27 05:31:04;;;;;;;12.38;2.50;;;14.10;99.90;;;;;;5064900;28;20025;-49
2022/08/27 05:33:30;;;;;;;4.93;2.40;;;14.10;99.90;;;;;;5063321;28;20025;-51
2022/08/27 05:35:56;;;;;;;4.18;2.40;;;14.00;99.90;;;;;;5070582;28;20039;-48
2022/08/27 05:38:25;;;;;;;4.82;2.20;;;14.10;99.90;;;;;;5071249;28;20082;-52
2022/08/27 05:41:00;;;;;;;4.68;2.30;;;14.10;99.90;;;;;;5070951;28;20040;-45
2022/08/27 05:43:26;;;;;;;5.47;2.47;;;14.10;99.90;;;;;;5069758;28;20066;-50
2022/08/27 05:45:52;;;;;;;3.75;2.13;;;14.10;99.90;;;;;;5062997;28;20483;-48
2022/08/27 05:48:18;;;;;;;5.90;2.33;;;14.10;99.90;;;;;;5069840;28;20031;-48
2022/08/27 05:50:44;;;;;;;5.60;2.00;;;14.10;99.90;;;;;;5071092;28;20041;-47
2022/08/27 05:53:12;;;;;;;5.72;1.90;;;14.10;99.90;;;;;;5070864;28;20519;-52
2022/08/27 05:55:39;;;;;;;3.22;1.98;;;14.20;99.90;;;;;;5070983;28;20031;-46
2022/08/27 05:58:07;;;;;;;6.72;2.28;;;14.30;99.90;;;;;;5070551;28;20384;-46
2022/08/27 06:03:20;;;;;;;5.28;2.10;;;14.40;99.90;;;;;;5067750;28;20036;-56
2022/08/27 06:05:46;;;;;;;5.72;2.33;;;14.50;99.90;;;;;;5067124;28;20024;-50
2022/08/27 06:08:12;;;;;;;5.68;2.28;;;14.60;99.90;;;;;;5062075;28;20031;-52
2022/08/27 06:10:41;;;;;;;4.10;2.65;;;14.60;99.90;;;;;;5066928;28;20025;-46
2022/08/27 06:13:07;;;;;;;6.30;2.30;;;14.60;99.90;;;;;;5069823;28;20025;-50
2022/08/27 06:15:33;;;;;;;4.43;1.80;;;14.70;99.90;;;;;;5066308;28;20061;-47
2022/08/27 06:17:59;;;;;;;5.20;2.03;;;14.70;99.90;;;;;;5070438;28;20549;-51
2022/08/27 06:20:24;;;;;;;4.75;2.00;;;14.80;99.90;;;;;;5065607;28;20538;-45
2022/08/27 06:22:50;;;;;;;5.40;2.15;;;14.90;99.90;;;;;;5063625;28;20029;-55
2022/08/27 06:25:16;;;;;;;4.53;2.00;;;14.90;99.90;;;;;;5070390;28;20111;-54
2022/08/27 06:27:42;;;;;;;5.13;2.00;;;15.00;99.90;;;;;;5071837;28;20016;-50
2022/08/27 06:30:08;;;;;;;5.65;2.22;;;15.00;99.90;;;;;;5068979;28;20045;-55
2022/08/27 06:32:34;;;;;;;4.07;1.70;;;15.20;99.90;;;;;;5073546;28;20061;-47
2022/08/27 06:34:59;;;;;;;3.42;2.00;;;15.40;99.90;;;;;;5067359;28;20017;-44
2022/08/27 06:37:26;;;;;;;2.83;1.80;;;15.90;99.90;;;;;;5070395;28;20044;-51
2022/08/27 06:39:51;;;;;;;5.35;1.70;;;16.60;99.90;;;;;;5074366;28;20102;-44
2022/08/27 06:42:17;;;;;;;5.18;1.60;;;17.50;99.90;;;;;;5070543;28;20145;-47
2022/08/27 06:44:43;;;;;;;3.20;1.55;;;18.40;99.90;;;;;;5064839;28;20028;-54
2022/08/27 06:47:09;;;;;;;4.63;1.50;;;19.20;99.90;;;;;;5074337;28;20028;-49
2022/08/27 06:49:39;;;;;;;4.15;1.60;;;20.00;99.90;;;;;;5070966;28;20087;-50
2022/08/27 06:52:04;;;;;;;4.32;1.80;;;20.80;99.90;;;;;;5069240;28;20398;-48
2022/08/27 06:54:31;;;;;;;5.00;1.67;;;21.20;99.90;;;;;;5067508;28;20024;-45
2022/08/27 06:56:59;;;;;;;4.68;1.85;;;21.30;99.90;;;;;;5066783;28;20043;-44
2022/08/27 06:59:25;;;;;;;4.80;1.60;;;21.20;99.90;;;;;;5066476;28;20047;-44
2022/08/27 07:01:51;;;;;;;5.10;1.70;;;21.30;99.90;;;;;;5072214;28;20028;-47
2022/08/27 07:04:20;;;;;;;4.40;1.50;;;21.70;99.90;;;;;;5072689;28;20024;-49
2022/08/27 07:06:46;;;;;;;2.67;1.42;;;22.30;99.90;;;;;;5071594;28;21063;-51
2022/08/27 07:09:11;;;;;;;5.50;1.98;;;23.10;99.70;;;;;;5072374;28;20095;-45
2022/08/27 07:11:38;;;;;;;7.00;1.67;;;23.80;97.80;;;;;;5072103;28;20056;-50
2022/08/27 07:14:05;;;;;;;9.00;1.75;;;24.40;96.10;;;;;;5072670;28;20044;-47
2022/08/27 07:16:30;;;;;;;4.63;1.40;;;24.90;94.90;;;;;;5070830;28;20429;-46
2022/08/27 07:18:59;;;;;;;4.85;1.38;;;25.10;93.60;;;;;;5069650;28;20020;-47
2022/08/27 07:21:26;;;;;;;4.13;1.63;;;25.40;94.40;;;;;;5070631;28;20051;-51
2022/08/27 07:23:53;;;;;;;5.97;1.83;;;25.90;93.20;;;;;;5072414;28;20569;-52
2022/08/27 07:26:21;;;;;;;4.30;1.52;;;26.40;92.80;;;;;;5072313;28;20424;-47
2022/08/27 07:28:48;;;;;;;6.35;1.70;;;26.80;91.50;;;;;;5067928;28;20020;-46
2022/08/27 07:31:16;;;;;;;5.88;2.00;;;27.10;90.60;;;;;;5067883;28;20423;-47
2022/08/27 07:33:42;;;;;;;6.57;1.77;;;27.40;90.00;;;;;;5069848;28;20021;-52
2022/08/27 07:36:08;;;;;;;4.55;1.50;;;27.30;89.50;;;;;;5071389;28;20330;-53
2022/08/27 07:38:34;;;;;;;3.40;1.13;;;27.60;89.10;;;;;;5070754;28;20024;-48
2022/08/27 07:41:07;;;;;;;5.20;1.45;;;27.80;87.00;;;;;;5071824;28;20017;-49
2022/08/27 07:46:18;;;;;;;8.38;1.73;;;28.10;86.80;;;;;;5070295;28;20106;-47
2022/08/27 07:48:44;;;;;;;5.53;1.33;;;28.70;85.40;;;;;;5072141;28;20048;-53
2022/08/27 07:51:16;;;;;;;3.78;1.30;;;29.20;82.00;;;;;;5071793;28;20040;-46
2022/08/27 07:53:42;;;;;;;5.18;1.45;;;29.50;81.20;;;;;;5062343;28;20029;-53
2022/08/27 07:56:08;;;;;;;4.32;1.17;;;29.60;79.50;;;;;;5065886;28;20057;-44
2022/08/27 07:58:34;;;;;;;3.13;1.38;;;29.70;80.20;;;;;;5071753;28;20055;-54
2022/08/27 08:01:00;;;;;;;3.50;1.30;;;30.00;78.40;;;;;;5067949;28;20036;-47
2022/08/27 08:03:26;;;;;;;4.93;1.60;;;29.60;79.00;;;;;;5067412;28;20033;-51
2022/08/27 08:05:52;;;;;;;5.32;1.60;;;29.50;78.20;;;;;;5072140;28;20405;-48
2022/08/27 08:08:19;;;;;;;2.88;1.23;;;29.10;80.60;;;;;;5069035;28;20028;-51
2022/08/27 08:10:47;;;;;;;4.00;1.20;;;29.20;81.50;;;;;;5063309;28;20025;-49
2022/08/27 08:13:13;;;;;;;4.18;1.38;;;29.50;81.30;;;;;;5072510;28;20024;-56
2022/08/27 08:15:39;;;;;;;4.07;1.40;;;30.10;77.30;;;;;;5069712;28;20122;-47
2022/08/27 08:18:04;;;;;;;4.97;1.40;;;30.50;79.70;;;;;;5066872;28;20112;-50
2022/08/27 08:20:30;;;;;;;3.92;1.42;;;31.10;76.80;;;;;;5059984;28;20040;-50
2022/08/27 08:22:56;;;;;;;2.50;1.20;;;30.80;74.60;;;;;;5072336;28;20476;-46
2022/08/27 08:25:22;;;;;;;4.47;1.33;;;30.60;73.50;;;;;;5071645;28;20052;-52
2022/08/27 08:27:48;;;;;;;3.80;1.30;;;30.70;74.60;;;;;;5072517;28;20031;-44
2022/08/27 08:30:13;;;;;;;3.22;1.40;;;31.20;74.50;;;;;;5067789;28;20029;-52
2022/08/27 08:32:42;;;;;;;3.53;1.35;;;31.50;74.00;;;;;;5068541;28;20070;-50
2022/08/27 08:35:08;;;;;;;4.40;1.38;;;32.10;75.10;;;;;;5070722;28;20103;-52
2022/08/27 08:37:34;;;;;;;3.15;1.30;;;32.20;68.10;;;;;;5070304;28;20060;-52
2022/08/27 08:40:01;;;;;;;3.70;1.27;;;32.10;68.80;;;;;;5070034;28;20027;-47
2022/08/27 08:42:29;;;;;;;3.60;1.35;;;32.30;67.60;;;;;;5070208;28;20039;-49
2022/08/27 08:44:56;;;;;;;5.95;1.00;;;32.60;66.90;;;;;;5070291;28;20103;-53
2022/08/27 08:47:42;;;;;;;6.40;1.50;;;33.50;65.70;;;;;;5070268;28;20033;-55
2022/08/27 08:50:10;;;;;;;3.17;1.08;;;33.70;65.50;;;;;;5064313;28;20087;-44
2022/08/27 08:53:03;;;;;;;4.25;1.10;;;33.60;62.70;;;;;;5072183;28;20028;-52
2022/08/27 08:55:55;;;;;;;3.80;1.30;;;32.60;61.70;;;;;;5060447;28;20649;-53
2022/08/27 08:58:33;;;;;;;4.70;1.30;;;31.80;65.10;;;;;;5069417;28;20482;-49
2022/08/27 09:01:02;;;;;;;4.07;1.23;;;31.20;67.20;;;;;;5071851;28;20031;-54
2022/08/27 09:03:28;;;;;;;4.10;1.40;;;32.00;67.40;;;;;;5066431;28;20115;-47
2022/08/27 09:06:20;;;;;;;6.20;1.67;;;32.30;63.10;;;;;;5069804;28;20728;-45
2022/08/27 09:08:46;;;;;;;4.93;1.25;;;32.30;67.10;;;;;;5071129;28;20104;-52
2022/08/27 09:11:34;;;;;;;3.42;1.40;;;32.40;63.10;;;;;;5065146;28;20107;-44
2022/08/27 09:14:18;;;;;;;5.73;1.60;;;32.70;66.30;;;;;;5061654;28;20115;-55
2022/08/27 09:16:43;;;;;;;3.38;1.15;;;33.10;60.80;;;;;;5068491;28;20021;-52
2022/08/27 09:19:09;;;;;;;4.00;1.60;;;32.60;61.90;;;;;;5067807;28;20025;-50
2022/08/27 09:21:48;;;;;;;5.95;1.73;;;32.90;63.70;;;;;;5062793;28;20036;-47
2022/08/27 09:24:31;;;;;;;2.85;1.27;;;33.40;62.00;;;;;;5065861;28;20021;-44
2022/08/27 09:26:57;;;;;;;4.82;1.50;;;33.80;58.30;;;;;;5071010;28;20108;-52
2022/08/27 09:29:28;;;;;;;4.18;1.70;;;33.60;58.10;;;;;;5070590;28;20107;-49
2022/08/27 09:32:07;;;;;;;5.70;1.98;;;33.80;58.90;;;;;;5065936;28;20024;-47
2022/08/27 09:34:39;;;;;;;4.80;1.88;;;33.20;59.00;;;;;;5065497;28;20052;-51
2022/08/27 09:37:21;;;;;;;3.75;1.73;;;32.20;59.70;;;;;;5069929;28;20047;-54
2022/08/27 09:40:00;;;;;;;3.70;1.60;;;31.10;61.30;;;;;;5064563;28;20044;-52
2022/08/27 09:42:42;;;;;;;5.65;2.00;;;29.90;65.90;;;;;;5065217;28;20443;-51
2022/08/27 09:45:14;;;;;;;4.18;1.73;;;29.50;65.20;;;;;;5066891;28;20067;-52
2022/08/27 09:47:46;;;;;;;5.90;2.10;;;29.00;69.20;;;;;;5065081;28;20562;-47
2022/08/27 09:50:15;;;;;;;7.53;2.10;;;28.60;68.40;;;;;;5066159;28;20495;-50
2022/08/27 09:52:54;;;;;;;5.65;1.90;;;28.20;68.60;;;;;;5066326;28;20025;-48
2022/08/27 09:56:02;;;;;;;5.95;2.10;;;27.70;72.80;;;;;;5059674;28;20031;-48
2022/08/27 09:58:30;;;;;;;7.10;2.17;;;27.40;76.80;;;;;;4980821;28;20030;-44
2022/08/27 10:01:24;;;;;;;5.88;2.40;;;27.40;78.20;;;;;;5001914;28;20034;-49
2022/08/27 10:04:02;;;;;;;9.98;2.90;;;27.70;76.90;;;;;;5043634;28;20043;-48
2022/08/27 10:06:30;;;;;;;5.82;2.13;;;28.10;77.20;;;;;;5057877;28;20582;-44
2022/08/27 10:09:37;;;;;;;8.13;2.00;;;28.30;73.90;;;;;;5052633;28;20028;-52
2022/08/27 10:12:21;;;;;;;6.80;2.00;;;29.00;74.30;;;;;;5067447;28;20035;-48
2022/08/27 10:14:51;;;;;;;5.88;1.90;;;30.00;74.80;;;;;;5066731;28;20039;-48
2022/08/27 10:17:31;;;;;;;5.43;1.95;;;30.70;71.50;;;;;;5062643;28;20503;-45
2022/08/27 10:20:02;;;;;;;4.05;1.63;;;31.00;69.40;;;;;;5057224;28;20025;-50
2022/08/27 10:22:58;;;;;;;7.22;2.08;;;31.00;68.80;;;;;;5060823;28;20067;-45
2022/08/27 10:25:42;;;;;;;7.90;2.50;;;31.10;67.40;;;;;;5059260;28;20036;-48
2022/08/27 10:28:20;;;;;;;6.50;1.95;;;31.20;66.20;;;;;;5050688;28;20024;-44
2022/08/27 10:31:17;;;;;;;5.95;2.00;;;31.20;65.10;;;;;;5054600;28;20103;-52
2022/08/27 10:34:06;;;;;;;5.20;2.00;;;31.10;65.20;;;;;;5060135;28;20063;-44
2022/08/27 10:36:35;;;;;;;7.28;2.15;;;30.20;66.40;;;;;;5056874;28;20058;-47
2022/08/27 10:39:07;;;;;;;5.25;1.75;;;29.30;66.40;;;;;;5055413;28;21025;-48
2022/08/27 10:41:42;;;;;;;5.30;1.90;;;28.70;68.00;;;;;;5062417;28;20510;-46
2022/08/27 10:44:34;;;;;;;3.95;1.60;;;28.10;69.80;;;;;;5059974;28;20052;-45
2022/08/27 10:47:24;;;;;;;6.47;1.85;;;27.50;73.90;;;;;;5064104;28;20029;-48
2022/08/27 10:50:27;;;;;;;4.03;1.45;;;26.80;76.40;;;;;;5059334;28;20051;-46
2022/08/27 10:53:29;;;;;;;7.32;1.80;;;26.30;80.00;;;;;;5064409;28;20029;-45
2022/08/27 10:56:27;;;;;;;6.90;1.70;;;25.90;79.00;;;;;;5061259;28;20399;-55
2022/08/27 10:59:14;;;;;;;4.72;1.60;;;25.60;82.30;;;;;;5067670;28;20077;-53
2022/08/27 11:01:49;;;;;;;4.53;1.58;;;25.40;82.20;;;;;;5069980;28;20036;-44
2022/08/27 11:04:34;;;;;;;4.00;1.58;;;25.20;84.00;;;;;;5069011;28;20036;-47
2022/08/27 11:07:06;;;;;;;5.63;1.90;;;25.20;85.60;;;;;;5067900;28;20025;-49
2022/08/27 11:09:47;;;;;;;6.28;1.88;;;25.10;84.10;;;;;;5066371;28;20021;-48
2022/08/27 11:12:19;;;;;;;7.28;1.80;;;25.00;84.40;;;;;;5066155;28;20634;-52
2022/08/27 11:15:27;;;;;;;5.88;1.77;;;25.00;85.50;;;;;;5072360;28;20039;-46
2022/08/27 11:18:15;;;;;;;5.10;1.90;;;25.10;87.90;;;;;;5029760;28;20033;-56
2022/08/27 11:20:54;;;;;;;5.85;1.70;;;25.10;87.50;;;;;;5030897;28;20029;-46
2022/08/27 11:23:28;;;;;;;4.47;1.80;;;25.20;88.20;;;;;;5056805;28;20041;-47
2022/08/27 11:25:59;;;;;;;6.22;2.10;;;25.30;86.40;;;;;;5073528;28;20383;-49
2022/08/27 11:28:37;;;;;;;3.95;1.80;;;25.60;88.90;;;;;;5073672;28;20032;-52
2022/08/27 11:31:20;;;;;;;7.15;1.90;;;26.40;83.00;;;;;;5073498;28;20532;-53
2022/08/27 11:34:08;;;;;;;4.07;1.98;;;26.50;79.50;;;;;;5073419;28;20017;-55
2022/08/27 11:36:36;;;;;;;4.78;1.60;;;26.50;80.90;;;;;;5059905;28;20387;-46
2022/08/27 11:39:13;;;;;;;4.95;2.20;;;26.10;80.00;;;;;;5073591;28;20025;-50
2022/08/27 11:42:03;;;;;;;5.88;2.00;;;26.10;82.90;;;;;;5067330;28;20132;-52
2022/08/27 11:44:29;;;;;;;4.10;1.83;;;26.40;79.80;;;;;;5064954;28;20035;-49
2022/08/27 11:47:06;;;;;;;5.45;1.98;;;26.40;78.80;;;;;;5073482;28;20107;-57
2022/08/27 11:49:57;;;;;;;3.67;1.80;;;26.10;78.70;;;;;;5063955;28;20495;-51
2022/08/27 11:52:31;;;;;;;3.40;1.52;;;25.70;81.70;;;;;;5069924;28;20020;-49
2022/08/27 11:55:13;;;;;;;2.67;1.60;;;25.60;84.80;;;;;;5072731;28;20499;-52
2022/08/27 11:57:39;;;;;;;4.72;1.70;;;26.10;82.40;;;;;;5067617;28;20037;-48
2022/08/27 12:00:27;;;;;;;5.68;1.73;;;26.70;81.80;;;;;;5058614;28;20104;-53
2022/08/27 12:03:21;;;;;;;5.22;1.50;;;27.50;80.30;;;;;;5058810;28;20055;-55
2022/08/27 12:06:08;;;;;;;4.68;1.70;;;28.00;81.30;;;;;;5063227;28;20083;-45
2022/08/27 12:08:34;;;;;;;4.20;1.80;;;28.40;74.30;;;;;;5058920;28;20094;-47
2022/08/27 12:11:06;;;;;;;6.05;2.03;;;28.80;75.80;;;;;;5060904;28;20489;-49
2022/08/27 12:13:48;;;;;;;9.35;1.85;;;29.00;75.80;;;;;;5063589;28;20083;-48
2022/08/27 12:16:41;;;;;;;5.10;1.95;;;29.10;70.00;;;;;;5061489;28;20029;-45
2022/08/27 12:19:42;;;;;;;5.10;1.88;;;29.10;70.70;;;;;;5064758;28;20486;-50
2022/08/27 12:23:38;;;;;;;6.30;1.88;;;29.20;69.80;;;;;;5067373;28;20047;-45
2022/08/27 12:25:21;;;;;;;5.32;2.05;;;28.20;66.20;;;;;;5070107;28;20071;-48
2022/08/27 12:27:55;;;;;;;4.45;2.40;;;28.20;70.10;;;;;;5072140;28;20353;-52
2022/08/27 12:30:40;;;;;;;5.75;1.60;;;27.40;69.10;;;;;;5069948;28;20032;-44
2022/08/27 12:33:34;;;;;;;3.60;1.65;;;27.40;74.80;;;;;;5065281;28;20029;-47
2022/08/27 12:36:08;;;;;;;6.03;2.00;;;27.50;74.70;;;;;;5060878;28;20037;-56
2022/08/27 12:38:46;;;;;;;5.30;2.00;;;27.40;72.50;;;;;;5071003;28;20203;-51
2022/08/27 12:41:24;;;;;;;4.03;1.65;;;27.10;74.30;;;;;;5071053;28;20060;-49
2022/08/27 12:44:02;;;;;;;3.38;1.70;;;26.60;71.80;;;;;;5071409;28;20029;-45
2022/08/27 12:46:28;;;;;;;4.28;1.55;;;26.10;74.30;;;;;;5069307;28;20410;-47
2022/08/27 12:48:58;;;;;;;3.08;1.42;;;25.60;75.20;;;;;;5071338;28;20735;-48
2022/08/27 12:51:30;;;;;;;7.45;1.80;;;24.90;74.20;;;;;;5069085;28;20065;-44
2022/08/27 12:54:37;;;;;;;2.97;1.70;;;24.40;79.20;;;;;;5069950;28;20449;-46
2022/08/27 12:57:11;;;;;;;5.00;1.83;;;24.20;80.90;;;;;;5067860;28;20032;-47
2022/08/27 13:00:13;;;;;;;4.10;1.83;;;24.20;84.30;;;;;;5069877;28;20100;-48
2022/08/27 13:02:56;;;;;;;7.10;1.70;;;24.10;86.80;;;;;;5026456;28;20052;-46
2022/08/27 13:05:23;;;;;;;4.75;1.58;;;24.00;86.90;;;;;;5059279;28;20053;-44
2022/08/27 13:07:50;;;;;;;4.03;1.70;;;23.90;86.80;;;;;;5063246;28;20548;-46
2022/08/27 13:10:28;;;;;;;6.82;1.65;;;23.80;87.50;;;;;;5071709;28;20058;-47
2022/08/27 13:13:04;;;;;;;4.57;1.80;;;23.80;90.40;;;;;;5071773;28;20029;-51
2022/08/27 13:15:32;;;;;;;7.10;2.10;;;23.90;89.70;;;;;;5068263;28;20036;-54
2022/08/27 13:17:59;;;;;;;6.38;2.00;;;23.90;88.30;;;;;;5060539;28;20020;-54